CZEM/ZEM METAR and TAF weather

Enter ICAO airport designator
Station Type Date Time Source
CZEM METAR 2021/09/28 17:00 UTC NOAA

CZEM 281700Z 30016G22KT 5SM -RA BKN013 OVC030 08/08 A2978 RMK SF6SF2 SLP086


Station Type Date Time Source
CZEM Decoded METAR 2021/09/28 17:00 UTC NOAA

Eastmain River Airport, Canada (CZEM) 52-14N 078-31W
Sep 28, 2021 - 01:00 PM EDT / 2021.09.28 1700 UTC
Wind: from the WNW (300 degrees) at 18 MPH (16 KT) gusting to 25 MPH (22 KT):0
Visibility: 5 mile(s):0
Sky conditions: overcast
Weather: light rain
Temperature: 46 F (8 C)
Dew Point: 46 F (8 C)
Relative Humidity: 100%
Pressure (altimeter): 29.78 in. Hg (1008 hPa)
ob: CZEM 281700Z 30016G22KT 5SM -RA BKN013 OVC030 08/08 A2978 RMK SF6SF2 SLP086
cycle: 17

Station Type Date Time Source
CZEM TAF UTC NOAA

Error!

Example: see airport list